createdAt,value
2017-09-30T00:01:25.406Z,15.40
2017-09-30T00:03:52.961Z,15.50
2017-09-30T00:06:20.613Z,15.50
2017-09-30T00:08:48.201Z,15.50
2017-09-30T00:11:15.776Z,15.50
2017-09-30T00:13:43.353Z,15.40
2017-09-30T00:16:11.683Z,15.40
2017-09-30T00:18:39.250Z,15.40
2017-09-30T00:21:06.806Z,15.40
2017-09-30T00:23:34.361Z,15.50
2017-09-30T00:26:01.926Z,15.40
2017-09-30T00:28:29.493Z,15.40
2017-09-30T00:30:57.041Z,15.40
2017-09-30T00:33:24.632Z,15.40
2017-09-30T00:35:52.210Z,15.40
2017-09-30T00:38:20.520Z,15.30
2017-09-30T00:40:48.082Z,15.30
2017-09-30T00:43:15.635Z,15.30
2017-09-30T00:45:43.216Z,15.30
2017-09-30T00:48:10.801Z,15.30
2017-09-30T00:50:38.357Z,15.30
2017-09-30T00:53:05.932Z,15.30
2017-09-30T00:55:33.505Z,15.30
2017-09-30T00:58:01.844Z,15.20
2017-09-30T01:00:29.398Z,15.20
2017-09-30T01:02:56.980Z,15.10
2017-09-30T01:05:24.529Z,15.20
2017-09-30T01:07:52.084Z,15.20
2017-09-30T01:10:21.322Z,15.20
2017-09-30T01:12:49.662Z,15.20
2017-09-30T01:15:17.226Z,15.20
2017-09-30T01:17:44.819Z,15.20
2017-09-30T01:20:13.170Z,15.10
2017-09-30T01:22:40.740Z,15.10
2017-09-30T01:25:08.334Z,15.10
2017-09-30T01:27:35.908Z,15.10
2017-09-30T01:30:03.485Z,15.10
2017-09-30T01:32:31.047Z,15.10
2017-09-30T01:34:58.624Z,15.10
2017-09-30T01:37:26.197Z,15.10
2017-09-30T01:39:53.782Z,15.00
2017-09-30T01:42:22.118Z,14.90
2017-09-30T01:44:49.718Z,14.90
2017-09-30T01:47:18.067Z,14.80
2017-09-30T01:49:45.668Z,14.80
2017-09-30T01:52:14.021Z,14.80
2017-09-30T01:54:41.592Z,14.80
2017-09-30T01:57:09.950Z,14.80
2017-09-30T01:59:37.528Z,14.80
2017-09-30T02:02:05.094Z,14.80
2017-09-30T02:04:33.434Z,14.80
2017-09-30T02:07:00.998Z,14.80
2017-09-30T02:09:29.566Z,14.80
2017-09-30T02:11:57.137Z,14.80
2017-09-30T02:14:24.693Z,14.80
2017-09-30T02:16:52.261Z,14.70
2017-09-30T02:19:19.829Z,14.70
2017-09-30T02:21:47.429Z,14.80
2017-09-30T02:24:15.766Z,14.80
2017-09-30T02:26:43.346Z,14.70
2017-09-30T02:29:10.912Z,14.70
2017-09-30T02:31:39.249Z,14.70
2017-09-30T02:34:06.813Z,14.70
2017-09-30T02:36:34.376Z,14.70
2017-09-30T02:39:01.939Z,14.70
2017-09-30T02:41:29.573Z,14.70
2017-09-30T02:43:57.136Z,14.60
2017-09-30T02:46:24.713Z,14.50
2017-09-30T02:48:52.255Z,14.50
2017-09-30T02:51:19.825Z,14.40
2017-09-30T02:53:47.391Z,14.40
2017-09-30T02:56:15.027Z,14.50
2017-09-30T02:58:42.621Z,14.50
2017-09-30T03:01:10.175Z,14.50
2017-09-30T03:03:37.758Z,14.50
2017-09-30T03:06:05.305Z,14.40
2017-09-30T03:08:32.873Z,14.40
2017-09-30T03:11:00.437Z,14.40
2017-09-30T03:13:28.015Z,14.40
2017-09-30T03:15:56.366Z,14.40
2017-09-30T03:18:23.953Z,14.40
2017-09-30T03:20:52.268Z,14.40
2017-09-30T03:23:19.846Z,14.40
2017-09-30T03:25:47.401Z,14.40
2017-09-30T03:28:14.978Z,14.40
2017-09-30T03:30:42.526Z,14.40
2017-09-30T03:33:10.090Z,14.40
2017-09-30T03:35:37.662Z,14.40
2017-09-30T03:38:05.234Z,14.40
2017-09-30T03:40:32.808Z,14.40
2017-09-30T03:43:01.135Z,14.40
2017-09-30T03:45:28.684Z,14.40
2017-09-30T03:47:56.278Z,14.40
2017-09-30T03:50:23.853Z,14.40
2017-09-30T03:52:51.474Z,14.40
2017-09-30T03:55:19.014Z,14.40
2017-09-30T03:57:46.592Z,14.40
2017-09-30T04:00:14.169Z,14.30
2017-09-30T04:02:41.746Z,14.30
2017-09-30T04:05:09.354Z,14.30
2017-09-30T04:07:36.932Z,14.40
2017-09-30T04:10:04.498Z,14.40
2017-09-30T04:12:32.068Z,14.30
2017-09-30T04:14:59.613Z,14.30
2017-09-30T04:17:27.194Z,14.30
2017-09-30T04:19:54.755Z,14.30
2017-09-30T04:22:22.310Z,14.30
2017-09-30T04:24:49.891Z,14.30
2017-09-30T04:27:17.482Z,14.30
2017-09-30T04:29:45.814Z,14.30
2017-09-30T04:32:13.364Z,14.30
2017-09-30T04:34:40.974Z,14.30
2017-09-30T04:37:09.315Z,14.20
2017-09-30T04:39:36.924Z,14.20
2017-09-30T04:42:05.270Z,14.00
2017-09-30T04:44:32.845Z,14.00
2017-09-30T04:47:01.208Z,14.10
2017-09-30T04:49:51.730Z,14.10
2017-09-30T04:52:20.249Z,14.20
2017-09-30T04:55:11.628Z,14.20
2017-09-30T04:57:47.989Z,14.20
2017-09-30T05:00:15.560Z,14.20
2017-09-30T05:08:31.105Z,14.20
2017-09-30T05:10:58.691Z,14.20
2017-09-30T05:13:27.007Z,14.20
2017-09-30T05:15:54.580Z,14.20
2017-09-30T05:18:22.144Z,14.20
2017-09-30T05:20:49.725Z,14.10
2017-09-30T05:23:17.306Z,14.20
2017-09-30T05:25:45.646Z,14.20
2017-09-30T05:28:13.218Z,14.20
2017-09-30T05:30:40.812Z,14.20
2017-09-30T05:33:09.146Z,14.10
2017-09-30T05:35:36.702Z,14.10
2017-09-30T05:38:04.293Z,14.10
2017-09-30T05:40:31.849Z,14.10
2017-09-30T05:42:59.421Z,14.20
2017-09-30T05:45:27.761Z,14.20
2017-09-30T05:47:55.317Z,14.20
2017-09-30T05:50:22.869Z,14.20
2017-09-30T05:52:50.475Z,14.20
2017-09-30T05:55:18.820Z,14.30
2017-09-30T05:57:46.398Z,14.30
2017-09-30T06:00:13.983Z,14.30
2017-09-30T06:02:41.585Z,14.40
2017-09-30T06:05:09.168Z,14.40
2017-09-30T06:07:36.746Z,14.40
2017-09-30T06:10:04.313Z,14.50
2017-09-30T06:12:32.657Z,14.50
2017-09-30T06:15:00.244Z,14.50
2017-09-30T06:17:28.580Z,14.60
2017-09-30T06:19:56.168Z,14.50
2017-09-30T06:22:23.754Z,14.60
2017-09-30T06:24:52.121Z,14.60
2017-09-30T06:27:19.714Z,14.60
2017-09-30T06:29:48.485Z,14.70
2017-09-30T06:32:16.841Z,14.70
2017-09-30T06:34:44.439Z,14.70
2017-09-30T06:37:12.769Z,14.70
2017-09-30T06:39:40.348Z,14.70
2017-09-30T06:42:07.926Z,14.70
2017-09-30T06:44:36.258Z,14.90
2017-09-30T06:47:03.837Z,14.90
2017-09-30T06:49:31.496Z,15.00
2017-09-30T06:51:59.188Z,15.10
2017-09-30T06:54:27.535Z,15.10
2017-09-30T06:56:55.092Z,15.00
2017-09-30T06:59:22.699Z,15.20
2017-09-30T07:01:51.016Z,15.30
2017-09-30T07:04:18.681Z,15.30
2017-09-30T07:06:46.239Z,15.40
2017-09-30T07:09:14.444Z,15.50
2017-09-30T07:11:42.025Z,15.60
2017-09-30T07:14:10.401Z,15.60
2017-09-30T07:16:38.734Z,15.70
2017-09-30T07:19:06.309Z,15.70
2017-09-30T07:21:33.886Z,15.90
2017-09-30T07:24:01.475Z,15.90
2017-09-30T07:26:29.811Z,16.20
2017-09-30T07:28:57.397Z,16.10
2017-09-30T07:31:25.724Z,16.20
2017-09-30T07:33:53.278Z,16.20
2017-09-30T07:36:20.838Z,16.30
2017-09-30T07:38:48.396Z,16.30
2017-09-30T07:41:15.951Z,16.50
2017-09-30T07:43:43.517Z,16.50
2017-09-30T07:46:11.074Z,16.40
2017-09-30T07:48:38.635Z,16.60
2017-09-30T07:51:06.224Z,16.60
2017-09-30T07:53:33.786Z,16.70
2017-09-30T07:56:01.333Z,16.90
2017-09-30T07:58:28.922Z,17.10
2017-09-30T08:00:56.474Z,17.30
2017-09-30T08:03:24.045Z,17.40
2017-09-30T08:05:51.633Z,17.50
2017-09-30T08:08:19.201Z,17.60
2017-09-30T08:10:46.791Z,17.70
2017-09-30T08:13:14.380Z,17.70
2017-09-30T08:15:41.953Z,18.00
2017-09-30T08:18:10.277Z,18.20
2017-09-30T08:20:37.984Z,18.10
2017-09-30T08:23:05.598Z,18.20
2017-09-30T08:25:33.305Z,18.30
2017-09-30T08:28:00.936Z,18.30
2017-09-30T08:30:28.516Z,18.50
2017-09-30T08:32:56.088Z,18.60
2017-09-30T08:35:23.685Z,18.60
2017-09-30T08:37:51.249Z,18.70
2017-09-30T08:40:18.828Z,18.90
2017-09-30T08:42:46.388Z,19.00
2017-09-30T08:45:13.965Z,19.00
2017-09-30T08:47:41.553Z,19.20
2017-09-30T08:50:09.154Z,19.30
2017-09-30T08:52:36.724Z,19.40
2017-09-30T08:55:04.297Z,19.50
2017-09-30T08:57:31.865Z,19.60
2017-09-30T08:59:59.433Z,19.60
2017-09-30T09:02:27.011Z,19.70
2017-09-30T09:04:54.567Z,19.80
2017-09-30T09:07:22.130Z,19.80
2017-09-30T09:09:49.727Z,19.90
2017-09-30T09:12:17.284Z,19.90
2017-09-30T09:14:44.873Z,19.90
2017-09-30T09:17:12.474Z,20.00
2017-09-30T09:19:40.078Z,20.10
2017-09-30T09:22:07.687Z,20.20
2017-09-30T09:24:35.279Z,20.30
2017-09-30T09:27:03.611Z,20.50
2017-09-30T09:29:31.213Z,20.50
2017-09-30T09:31:59.550Z,20.70
2017-09-30T09:34:27.159Z,20.70
2017-09-30T09:36:55.520Z,20.80
2017-09-30T09:39:23.896Z,21.10
2017-09-30T09:41:51.470Z,21.00
2017-09-30T09:44:19.824Z,21.50
2017-09-30T09:46:47.410Z,21.50
2017-09-30T09:49:14.989Z,21.80
2017-09-30T09:51:42.553Z,21.80
2017-09-30T09:54:10.095Z,21.90
2017-09-30T09:56:38.430Z,22.30
2017-09-30T09:59:05.995Z,22.20
2017-09-30T10:01:33.590Z,22.30
2017-09-30T10:04:01.902Z,22.50
2017-09-30T10:06:29.461Z,22.50
2017-09-30T10:08:57.076Z,22.60
2017-09-30T10:11:24.658Z,22.60
2017-09-30T10:13:52.998Z,22.70
2017-09-30T10:16:20.636Z,22.70
2017-09-30T10:18:48.245Z,22.70
2017-09-30T10:21:16.591Z,22.90
2017-09-30T10:23:44.149Z,22.90
2017-09-30T10:26:11.703Z,23.10
2017-09-30T10:28:39.886Z,23.20
2017-09-30T10:31:07.475Z,23.30
2017-09-30T10:33:35.808Z,23.80
2017-09-30T10:36:03.391Z,23.80
2017-09-30T10:38:30.954Z,23.90
2017-09-30T10:40:58.505Z,23.90
2017-09-30T10:43:26.081Z,24.00
2017-09-30T10:45:53.651Z,24.30
2017-09-30T10:48:21.980Z,25.00
2017-09-30T10:50:49.544Z,25.00
2017-09-30T10:53:17.078Z,25.30
2017-09-30T10:55:44.662Z,25.40
2017-09-30T10:58:12.232Z,25.20
2017-09-30T11:00:39.826Z,25.10
2017-09-30T11:03:08.187Z,25.00
2017-09-30T11:05:35.733Z,25.00
2017-09-30T11:08:03.337Z,25.10
2017-09-30T11:10:31.645Z,25.20
2017-09-30T11:12:59.218Z,25.20
2017-09-30T11:15:26.775Z,25.40
2017-09-30T11:17:54.345Z,25.30
2017-09-30T11:20:21.918Z,25.20
2017-09-30T11:22:49.492Z,25.50
2017-09-30T11:25:17.062Z,25.50
2017-09-30T11:27:44.621Z,26.00
2017-09-30T11:30:12.189Z,26.30
2017-09-30T11:32:40.528Z,25.90
2017-09-30T11:35:08.100Z,25.90
2017-09-30T11:37:35.705Z,26.30
2017-09-30T11:40:03.257Z,26.10
2017-09-30T11:42:31.585Z,25.40
2017-09-30T11:44:59.153Z,25.40
2017-09-30T11:47:26.779Z,24.40
2017-09-30T11:49:55.873Z,24.60
2017-09-30T11:52:23.444Z,25.00
2017-09-30T11:54:51.025Z,25.00
2017-09-30T11:57:18.609Z,25.30
2017-09-30T11:59:46.208Z,25.20
2017-09-30T12:02:13.787Z,25.20
2017-09-30T12:04:41.336Z,25.60
2017-09-30T12:07:08.924Z,25.30
2017-09-30T12:09:36.544Z,25.10
2017-09-30T12:12:04.201Z,25.00
2017-09-30T12:14:31.773Z,25.00
2017-09-30T12:16:59.334Z,25.10
2017-09-30T12:19:26.904Z,24.90
2017-09-30T12:21:54.475Z,25.10
2017-09-30T12:24:22.062Z,24.90
2017-09-30T12:26:49.637Z,24.80
2017-09-30T12:29:17.201Z,24.80
2017-09-30T12:31:44.762Z,24.70
2017-09-30T12:34:13.104Z,24.30
2017-09-30T12:36:40.659Z,24.30
2017-09-30T12:39:08.251Z,24.00
2017-09-30T12:41:35.822Z,23.70
2017-09-30T12:44:04.163Z,23.70
2017-09-30T12:46:31.730Z,23.60
2017-09-30T12:48:59.324Z,23.10
2017-09-30T12:51:27.659Z,23.20
2017-09-30T12:53:55.262Z,23.10
2017-09-30T12:56:23.593Z,23.50
2017-09-30T12:58:51.182Z,23.40
2017-09-30T13:01:18.753Z,23.60
2017-09-30T13:03:46.294Z,24.00
2017-09-30T13:06:13.880Z,24.60
2017-09-30T13:08:42.217Z,24.90
2017-09-30T13:11:09.775Z,24.90
2017-09-30T13:13:37.376Z,24.80
2017-09-30T13:16:05.734Z,24.60
2017-09-30T13:18:33.329Z,24.60
2017-09-30T13:21:01.671Z,24.40
2017-09-30T13:23:29.240Z,24.30
2017-09-30T13:25:56.775Z,24.20
2017-09-30T13:28:24.347Z,23.90
2017-09-30T13:30:51.918Z,23.90
2017-09-30T13:33:19.493Z,23.40
2017-09-30T13:35:47.883Z,23.00
2017-09-30T13:38:16.242Z,23.00
2017-09-30T13:40:43.803Z,23.00
2017-09-30T13:43:11.367Z,22.70
2017-09-30T13:45:38.971Z,22.40
2017-09-30T13:48:06.523Z,22.30
2017-09-30T13:50:34.122Z,22.00
2017-09-30T13:53:01.703Z,22.20
2017-09-30T13:55:29.458Z,22.20
2017-09-30T13:57:57.026Z,21.90
2017-09-30T14:00:24.587Z,21.50
2017-09-30T14:02:52.148Z,21.10
2017-09-30T14:05:19.714Z,20.90
2017-09-30T14:07:47.280Z,20.80
2017-09-30T14:10:17.172Z,20.40
2017-09-30T14:12:57.378Z,20.40
2017-09-30T14:18:27.608Z,20.20
2017-09-30T14:20:56.884Z,18.90
2017-09-30T14:23:24.443Z,18.90
2017-09-30T14:25:51.999Z,18.50
2017-09-30T14:28:19.613Z,18.10
2017-09-30T14:30:47.177Z,17.90
2017-09-30T14:33:14.759Z,17.80
2017-09-30T14:35:42.307Z,17.80
2017-09-30T14:38:09.909Z,17.50
2017-09-30T14:40:37.510Z,17.40
2017-09-30T14:43:05.866Z,17.20
2017-09-30T14:45:33.464Z,17.20
2017-09-30T14:48:02.917Z,17.30
2017-09-30T14:50:32.907Z,17.10
2017-09-30T14:53:02.339Z,17.00
2017-09-30T14:55:33.942Z,17.00
2017-09-30T14:58:04.486Z,17.10
2017-09-30T15:00:33.231Z,17.10
2017-09-30T15:03:04.991Z,16.90
2017-09-30T15:05:33.333Z,16.60
2017-09-30T15:08:04.381Z,16.60
2017-09-30T15:10:36.226Z,16.50
2017-09-30T15:13:04.141Z,16.50
2017-09-30T15:15:32.485Z,16.30
2017-09-30T15:18:00.087Z,16.20
2017-09-30T15:20:28.405Z,16.00
2017-09-30T15:22:55.986Z,16.00
2017-09-30T15:25:23.558Z,16.00
2017-09-30T15:27:51.140Z,16.00
2017-09-30T15:30:18.744Z,15.90
2017-09-30T15:32:47.098Z,15.80
2017-09-30T15:35:14.692Z,15.80
2017-09-30T15:37:42.287Z,15.80
2017-09-30T15:40:09.894Z,15.70
2017-09-30T15:42:37.579Z,15.70
2017-09-30T15:45:05.172Z,15.70
2017-09-30T15:47:33.082Z,15.70
2017-09-30T15:50:01.437Z,15.70
2017-09-30T15:52:29.022Z,15.70
2017-09-30T15:54:57.361Z,15.60
2017-09-30T15:57:24.995Z,15.60
2017-09-30T15:59:52.563Z,15.60
2017-09-30T16:02:20.174Z,15.60
2017-09-30T16:04:47.744Z,15.60
2017-09-30T16:07:15.339Z,15.50
2017-09-30T16:09:42.893Z,15.40
2017-09-30T16:12:10.495Z,15.50
2017-09-30T16:14:38.029Z,15.40
2017-09-30T16:17:05.605Z,15.40
2017-09-30T16:19:33.189Z,15.30
2017-09-30T16:22:00.789Z,15.30
2017-09-30T16:24:28.350Z,15.20
2017-09-30T16:26:55.921Z,15.10
2017-09-30T16:29:23.502Z,15.00
2017-09-30T16:31:51.090Z,15.00
2017-09-30T16:34:18.686Z,14.90
2017-09-30T16:36:46.274Z,14.90
2017-09-30T16:39:13.851Z,14.90
2017-09-30T16:41:41.430Z,14.80
2017-09-30T16:44:09.042Z,14.80
2017-09-30T16:46:36.590Z,14.80
2017-09-30T16:49:04.156Z,14.70
2017-09-30T16:51:31.729Z,14.70
2017-09-30T16:53:59.321Z,14.70
2017-09-30T16:56:26.884Z,14.60
2017-09-30T16:58:54.462Z,14.50
2017-09-30T17:01:22.048Z,14.50
2017-09-30T17:03:49.671Z,14.40
2017-09-30T17:06:17.245Z,14.40
2017-09-30T17:08:44.822Z,14.40
2017-09-30T17:11:12.412Z,14.40
2017-09-30T17:13:39.980Z,14.40
2017-09-30T17:16:07.544Z,14.30
2017-09-30T17:18:35.125Z,14.30
2017-09-30T17:21:02.705Z,14.30
2017-09-30T17:23:30.290Z,14.40
2017-09-30T17:25:58.638Z,14.40
2017-09-30T17:28:26.223Z,14.40
2017-09-30T17:30:56.060Z,14.40
2017-09-30T17:33:23.744Z,14.40
2017-09-30T17:35:51.321Z,14.40
2017-09-30T17:38:18.933Z,14.40
2017-09-30T17:40:47.186Z,14.30
2017-09-30T17:43:15.782Z,14.30
2017-09-30T17:45:44.238Z,14.30
2017-09-30T17:48:12.242Z,14.30
2017-09-30T17:50:41.071Z,14.40
2017-09-30T17:53:08.666Z,14.30
2017-09-30T17:55:39.559Z,14.30
2017-09-30T17:58:07.345Z,14.30
2017-09-30T18:00:36.720Z,14.30
2017-09-30T18:03:05.098Z,14.30
2017-09-30T18:05:32.707Z,14.30
2017-09-30T18:08:00.345Z,14.30
2017-09-30T18:10:28.771Z,14.30
2017-09-30T18:12:56.397Z,14.30
2017-09-30T18:15:24.928Z,14.30
2017-09-30T18:17:55.166Z,14.20
2017-09-30T18:20:23.740Z,14.10
2017-09-30T18:22:51.491Z,14.10
2017-09-30T18:25:19.144Z,14.10
2017-09-30T18:27:46.781Z,14.00
2017-09-30T18:30:14.872Z,14.10
2017-09-30T18:32:42.569Z,14.10
2017-09-30T18:35:10.458Z,14.10
2017-09-30T18:37:38.927Z,14.00
2017-09-30T18:40:06.882Z,14.00
2017-09-30T18:42:34.979Z,14.00
2017-09-30T18:45:02.646Z,14.00
2017-09-30T18:47:31.114Z,14.00
2017-09-30T18:49:59.592Z,14.00
2017-09-30T18:52:28.028Z,14.00
2017-09-30T18:54:56.115Z,14.00
2017-09-30T18:57:24.008Z,14.00
2017-09-30T18:59:51.648Z,14.00
2017-09-30T19:02:19.384Z,14.00
2017-09-30T19:04:46.989Z,13.90
2017-09-30T19:07:15.422Z,14.00
2017-09-30T19:09:43.119Z,14.00
2017-09-30T19:12:11.238Z,14.00
2017-09-30T19:14:39.740Z,13.80
2017-09-30T19:17:07.349Z,13.80
2017-09-30T19:19:35.186Z,13.80
2017-09-30T19:22:02.848Z,13.70
2017-09-30T19:24:30.571Z,13.60
2017-09-30T19:26:58.181Z,13.50
2017-09-30T19:29:25.880Z,13.50
2017-09-30T19:31:54.580Z,13.50
2017-09-30T19:34:22.297Z,13.50
2017-09-30T19:36:49.989Z,13.50
2017-09-30T19:39:18.386Z,13.50
2017-09-30T19:41:46.242Z,13.50
2017-09-30T19:44:13.851Z,13.50
2017-09-30T19:46:41.425Z,13.50
2017-09-30T19:49:08.999Z,13.70
2017-09-30T19:51:37.279Z,13.60
2017-09-30T19:54:04.978Z,13.60
2017-09-30T19:56:32.579Z,13.60
2017-09-30T19:59:00.152Z,13.60
2017-09-30T20:01:28.360Z,13.60
2017-09-30T20:03:56.927Z,13.60
2017-09-30T20:06:24.792Z,13.60
2017-09-30T20:08:52.393Z,13.60
2017-09-30T20:11:20.773Z,13.60
2017-09-30T20:13:49.121Z,13.60
2017-09-30T20:16:16.861Z,13.50
2017-09-30T20:18:44.726Z,13.50
2017-09-30T20:21:12.323Z,13.50
2017-09-30T20:23:39.890Z,13.50
2017-09-30T20:26:07.599Z,13.50
2017-09-30T20:28:35.604Z,13.50
2017-09-30T20:31:03.180Z,13.50
2017-09-30T20:33:31.529Z,13.50
2017-09-30T20:35:59.114Z,13.50
2017-09-30T20:38:26.675Z,13.50
2017-09-30T20:40:54.236Z,13.60
2017-09-30T20:43:21.818Z,13.60
2017-09-30T20:45:50.179Z,13.60
2017-09-30T20:48:17.772Z,13.60
2017-09-30T20:50:46.215Z,13.50
2017-09-30T20:53:13.808Z,13.40
2017-09-30T20:55:42.133Z,13.40
2017-09-30T20:58:09.726Z,13.40
2017-09-30T21:00:37.313Z,13.40
2017-09-30T21:03:05.696Z,13.50
2017-09-30T21:05:33.278Z,13.40
2017-09-30T21:08:00.837Z,13.50
2017-09-30T21:10:28.403Z,13.50
2017-09-30T21:15:49.123Z,13.40
2017-09-30T21:18:16.692Z,13.40
2017-09-30T21:20:44.280Z,13.50
2017-09-30T21:23:12.646Z,13.50
2017-09-30T21:25:41.003Z,13.40
2017-09-30T21:28:08.581Z,13.40
2017-09-30T21:30:36.925Z,13.40
2017-09-30T21:33:04.514Z,13.40
2017-09-30T21:35:32.109Z,13.30
2017-09-30T21:37:59.661Z,13.30
2017-09-30T21:40:27.267Z,13.30
2017-09-30T21:42:54.844Z,13.40
2017-09-30T21:45:22.438Z,13.40
2017-09-30T21:47:50.069Z,13.40
2017-09-30T21:50:17.633Z,13.40
2017-09-30T21:52:45.176Z,13.40
2017-09-30T21:55:12.746Z,13.30
2017-09-30T21:57:40.298Z,13.20
2017-09-30T22:00:07.850Z,13.30
2017-09-30T22:02:35.489Z,13.30
2017-09-30T22:05:03.066Z,13.30
2017-09-30T22:07:30.638Z,13.30
2017-09-30T22:09:58.207Z,13.40
2017-09-30T22:12:25.770Z,13.40
2017-09-30T22:14:53.351Z,13.40
2017-09-30T22:17:21.671Z,13.40
2017-09-30T22:19:49.218Z,13.40
2017-09-30T22:22:16.805Z,13.50
2017-09-30T22:24:44.380Z,13.50
2017-09-30T22:27:11.957Z,13.50
2017-09-30T22:29:39.533Z,13.60
2017-09-30T22:32:07.901Z,13.50
2017-09-30T22:34:35.463Z,13.50
2017-09-30T22:37:03.789Z,13.50
2017-09-30T22:39:31.382Z,13.50
2017-09-30T22:41:58.954Z,13.50
2017-09-30T22:44:26.514Z,13.50
2017-09-30T22:46:54.089Z,13.50
2017-09-30T22:49:22.442Z,13.40
2017-09-30T22:51:50.002Z,13.40
2017-09-30T22:54:17.565Z,13.40
2017-09-30T22:56:45.114Z,13.40
2017-09-30T22:59:12.832Z,13.40
2017-09-30T23:01:40.405Z,13.40
2017-09-30T23:04:07.990Z,13.40
2017-09-30T23:06:35.561Z,13.40
2017-09-30T23:09:03.133Z,13.30
2017-09-30T23:11:30.729Z,13.30
2017-09-30T23:13:58.290Z,13.30
2017-09-30T23:16:25.893Z,13.30
2017-09-30T23:18:53.463Z,13.30
2017-09-30T23:21:21.029Z,13.30
2017-09-30T23:23:48.597Z,13.30
2017-09-30T23:26:16.144Z,13.30
2017-09-30T23:28:43.725Z,13.20
2017-09-30T23:31:11.274Z,13.20
2017-09-30T23:33:38.832Z,13.10
2017-09-30T23:36:06.397Z,13.00
2017-09-30T23:38:33.949Z,13.00
2017-09-30T23:41:01.518Z,13.00
2017-09-30T23:43:29.100Z,13.00
2017-09-30T23:45:57.452Z,12.90
2017-09-30T23:48:25.023Z,12.90
2017-09-30T23:50:53.409Z,12.90
2017-09-30T23:53:21.734Z,12.90
2017-09-30T23:55:49.297Z,12.90
2017-09-30T23:58:16.915Z,12.90
